Time;durP1;ratioP1;P1;durP2;ratioP2;P2;SDS_P1;SDS_P2;PMS_P1;PMS_P2;Temp;Humidity;BMP_temperature;BMP_pressure;BME280_temperature;BME280_humidity;BME280_pressure;Samples;Min_cycle;Max_cycle;Signal;HPM_P1;HPM_P2
2021/06/09 00:01:57;;;;;;;7.60;2.60;;;19.60;99.90;;;;;;5044740;28;20234;-73
2021/06/09 00:04:24;;;;;;;5.77;2.37;;;19.70;99.90;;;;;;5060745;28;20188;-75
2021/06/09 00:06:50;;;;;;;10.37;2.43;;;19.70;99.90;;;;;;5060124;28;20316;-72
2021/06/09 00:09:17;;;;;;;6.50;2.37;;;19.80;99.90;;;;;;5059685;28;20500;-76
2021/06/09 00:11:43;;;;;;;11.10;2.60;;;19.80;99.90;;;;;;5046216;28;20190;-74
2021/06/09 00:14:10;;;;;;;9.03;2.60;;;19.60;99.90;;;;;;5071387;28;20247;-72
2021/06/09 00:16:37;;;;;;;12.00;2.90;;;19.50;99.90;;;;;;5058205;28;20219;-75
2021/06/09 00:19:05;;;;;;;6.53;2.30;;;19.70;99.90;;;;;;5058034;28;20322;-72
2021/06/09 00:21:32;;;;;;;10.03;2.43;;;19.80;99.90;;;;;;5058764;28;20609;-73
2021/06/09 00:24:00;;;;;;;9.37;2.60;;;19.80;99.90;;;;;;5059308;28;20309;-74
2021/06/09 00:26:26;;;;;;;8.07;2.63;;;20.00;99.90;;;;;;5057754;28;20278;-72
2021/06/09 00:28:53;;;;;;;6.30;2.43;;;19.90;99.90;;;;;;5055362;28;20192;-71
2021/06/09 00:31:19;;;;;;;5.17;2.50;;;19.90;99.90;;;;;;5058349;28;20191;-75
2021/06/09 00:33:46;;;;;;;12.97;2.70;;;19.90;99.90;;;;;;5061654;28;20199;-72
2021/06/09 00:36:13;;;;;;;7.57;2.43;;;19.80;99.90;;;;;;5045546;28;20209;-72
2021/06/09 00:38:39;;;;;;;7.73;2.17;;;19.80;99.90;;;;;;5058678;28;20222;-71
2021/06/09 00:41:09;;;;;;;7.63;2.40;;;19.90;99.90;;;;;;5060504;28;20670;-73
2021/06/09 00:43:37;;;;;;;6.33;2.40;;;20.00;99.90;;;;;;5044933;28;20195;-70
2021/06/09 00:46:09;;;;;;;7.80;2.27;;;20.00;99.90;;;;;;5082981;28;20187;-71
2021/06/09 00:48:40;;;;;;;7.30;2.57;;;20.10;99.90;;;;;;5059411;28;20192;-72
2021/06/09 00:51:16;;;;;;;6.80;2.30;;;20.10;99.90;;;;;;5061271;28;20639;-71
2021/06/09 00:53:49;;;;;;;8.73;2.50;;;20.10;99.90;;;;;;5048695;28;20192;-71
2021/06/09 00:56:19;;;;;;;7.20;2.50;;;20.10;99.90;;;;;;5058462;28;20573;-72
2021/06/09 00:58:48;;;;;;;9.07;2.53;;;20.00;99.90;;;;;;5046247;28;20730;-71
2021/06/09 01:01:17;;;;;;;6.30;2.30;;;19.90;99.90;;;;;;5054031;28;20272;-71
2021/06/09 01:03:45;;;;;;;9.53;2.43;;;19.90;99.90;;;;;;5062631;28;20206;-71
2021/06/09 01:06:12;;;;;;;8.33;2.40;;;19.90;99.90;;;;;;5059261;28;20207;-71
2021/06/09 01:08:42;;;;;;;7.43;2.57;;;20.00;99.90;;;;;;5086609;28;20887;-71
2021/06/09 01:11:19;;;;;;;7.47;2.40;;;20.00;99.90;;;;;;5055605;28;20300;-71
2021/06/09 01:13:46;;;;;;;8.73;2.80;;;19.90;99.90;;;;;;5059076;28;20187;-71
2021/06/09 01:16:12;;;;;;;5.40;2.03;;;19.90;99.90;;;;;;5054679;28;20213;-70
2021/06/09 01:18:40;;;;;;;10.13;2.07;;;19.90;99.90;;;;;;5058512;28;20227;-70
2021/06/09 01:21:06;;;;;;;6.50;2.70;;;19.90;99.90;;;;;;5058663;28;20259;-69
2021/06/09 01:23:33;;;;;;;11.70;2.93;;;19.90;99.90;;;;;;5062186;28;20646;-69
2021/06/09 01:26:01;;;;;;;5.70;2.13;;;20.00;99.90;;;;;;5053221;28;20243;-69
2021/06/09 01:28:28;;;;;;;7.00;2.47;;;20.00;99.90;;;;;;5061529;28;20746;-70
2021/06/09 01:30:56;;;;;;;5.97;2.20;;;20.10;99.90;;;;;;5061903;28;20231;-71
2021/06/09 01:33:23;;;;;;;9.10;2.47;;;20.30;99.90;;;;;;5062169;28;20674;-71
2021/06/09 01:35:52;;;;;;;10.87;2.60;;;20.30;99.90;;;;;;5053191;28;21652;-74
2021/06/09 01:38:19;;;;;;;9.73;2.73;;;20.30;99.90;;;;;;5058146;28;20242;-74
2021/06/09 01:40:46;;;;;;;7.63;2.30;;;20.30;99.90;;;;;;5056225;28;20265;-75
2021/06/09 01:43:13;;;;;;;10.70;2.37;;;20.10;99.90;;;;;;5045577;28;20214;-72
2021/06/09 01:45:41;;;;;;;7.90;2.60;;;20.00;99.90;;;;;;5055807;28;20249;-72
2021/06/09 01:48:13;;;;;;;7.53;2.50;;;20.00;99.90;;;;;;5058810;28;20229;-72
2021/06/09 01:50:40;;;;;;;9.83;2.20;;;20.10;99.90;;;;;;5052222;28;20652;-73
2021/06/09 01:53:09;;;;;;;9.33;2.13;;;20.10;99.90;;;;;;5057879;28;20195;-73
2021/06/09 01:55:38;;;;;;;8.10;2.00;;;20.20;99.90;;;;;;5056714;28;20214;-73
2021/06/09 01:58:07;;;;;;;8.07;2.50;;;20.10;99.90;;;;;;5059756;28;20268;-71
2021/06/09 02:00:41;;;;;;;8.30;2.70;;;20.20;99.90;;;;;;5058754;28;20186;-72
2021/06/09 02:03:09;;;;;;;9.10;2.97;;;20.30;99.90;;;;;;5063532;28;20281;-71
2021/06/09 02:05:36;;;;;;;15.20;2.53;;;20.30;99.90;;;;;;5058871;28;20246;-74
2021/06/09 02:08:10;;;;;;;10.80;2.60;;;20.30;99.90;;;;;;5056971;28;20197;-73
2021/06/09 02:10:38;;;;;;;9.07;2.40;;;20.40;99.90;;;;;;5053051;28;20306;-71
2021/06/09 02:13:11;;;;;;;10.87;2.23;;;20.50;99.90;;;;;;5056164;28;20186;-73
2021/06/09 02:15:38;;;;;;;12.87;2.70;;;20.50;99.90;;;;;;5060642;28;20190;-73
2021/06/09 02:18:10;;;;;;;15.30;2.60;;;20.50;99.90;;;;;;5056674;28;20855;-73
2021/06/09 02:20:56;;;;;;;17.93;2.33;;;20.50;99.90;;;;;;5064430;28;20202;-72
2021/06/09 02:23:31;;;;;;;12.17;2.57;;;20.60;99.70;;;;;;5053467;28;20203;-71
2021/06/09 02:26:00;;;;;;;9.20;2.40;;;20.90;99.40;;;;;;5051107;28;20214;-73
2021/06/09 02:28:31;;;;;;;8.37;2.40;;;21.10;99.00;;;;;;5060086;28;20196;-72
2021/06/09 02:30:57;;;;;;;9.23;2.63;;;21.40;98.00;;;;;;5059098;28;20198;-73
2021/06/09 02:33:25;;;;;;;9.50;2.40;;;21.50;97.80;;;;;;5049449;28;20252;-73
2021/06/09 02:35:55;;;;;;;8.73;2.37;;;21.50;97.70;;;;;;5058286;28;20191;-73
2021/06/09 02:38:22;;;;;;;9.37;2.27;;;21.50;97.40;;;;;;5050953;28;20253;-71
2021/06/09 02:40:54;;;;;;;5.30;1.97;;;21.50;97.10;;;;;;5056028;28;20252;-73
2021/06/09 02:43:21;;;;;;;10.40;2.43;;;21.60;96.90;;;;;;5055030;28;20191;-72
2021/06/09 02:45:53;;;;;;;13.17;2.57;;;21.50;96.90;;;;;;5063067;28;20230;-70
2021/06/09 02:48:26;;;;;;;11.87;2.37;;;21.50;97.00;;;;;;5063965;28;20826;-71
2021/06/09 02:50:53;;;;;;;9.23;2.37;;;21.80;96.30;;;;;;5057570;28;20784;-68
2021/06/09 02:53:34;;;;;;;10.40;2.50;;;21.70;96.40;;;;;;5058195;28;20203;-70
2021/06/09 02:56:29;;;;;;;13.90;2.90;;;21.70;96.40;;;;;;5055118;28;20241;-73
2021/06/09 02:59:22;;;;;;;12.93;3.03;;;21.70;96.10;;;;;;5048150;28;20372;-73
2021/06/09 03:02:41;;;;;;;7.93;1.93;;;21.70;95.90;;;;;;5054789;28;20194;-73
2021/06/09 03:05:18;;;;;;;12.20;2.30;;;21.70;96.10;;;;;;5059564;28;20272;-72
2021/06/09 03:08:24;;;;;;;12.27;2.47;;;21.70;96.00;;;;;;5058266;28;20199;-72
2021/06/09 03:11:01;;;;;;;9.83;2.30;;;21.70;96.00;;;;;;5064572;28;20206;-70
2021/06/09 03:16:55;;;;;;;12.17;2.33;;;21.90;95.30;;;;;;5054342;28;20277;-72
2021/06/09 03:19:38;;;;;;;16.20;2.33;;;21.80;95.80;;;;;;5046076;28;20215;-72
2021/06/09 03:22:27;;;;;;;10.40;2.40;;;21.90;95.60;;;;;;5062030;28;20183;-71
2021/06/09 03:24:57;;;;;;;9.33;2.47;;;21.90;95.50;;;;;;5061502;28;20182;-71
2021/06/09 03:27:35;;;;;;;9.97;2.10;;;21.90;95.20;;;;;;5063093;28;20275;-72
2021/06/09 03:30:10;;;;;;;9.93;2.10;;;22.00;95.40;;;;;;5064820;28;20567;-72
2021/06/09 03:33:04;;;;;;;11.17;2.20;;;22.00;95.10;;;;;;5056231;28;20187;-71
2021/06/09 03:35:53;;;;;;;12.63;2.27;;;22.10;95.30;;;;;;5066369;28;20203;-71
2021/06/09 03:38:50;;;;;;;12.83;2.30;;;22.30;95.00;;;;;;5063536;28;20305;-73
2021/06/09 03:41:19;;;;;;;13.87;2.73;;;22.20;95.20;;;;;;5038588;28;20222;-72
2021/06/09 03:43:54;;;;;;;13.57;2.60;;;22.10;95.20;;;;;;5060188;28;20194;-72
2021/06/09 03:46:23;;;;;;;12.10;2.67;;;22.00;95.80;;;;;;5045429;28;20589;-73
2021/06/09 03:48:53;;;;;;;9.00;2.10;;;21.90;96.50;;;;;;5061674;28;20195;-70
2021/06/09 03:51:24;;;;;;;10.20;2.27;;;21.80;96.20;;;;;;5062883;28;20348;-70
2021/06/09 03:53:54;;;;;;;12.50;2.50;;;21.90;96.10;;;;;;5064911;28;20328;-71
2021/06/09 03:56:20;;;;;;;13.93;2.27;;;21.90;96.20;;;;;;5059817;28;20286;-72
2021/06/09 03:58:49;;;;;;;6.60;2.10;;;21.90;96.10;;;;;;5062293;28;20215;-70
2021/06/09 04:01:19;;;;;;;10.43;2.57;;;22.00;96.10;;;;;;5053855;28;20722;-72
2021/06/09 04:03:47;;;;;;;10.03;2.70;;;22.20;96.20;;;;;;5061210;28;20218;-71
2021/06/09 04:06:19;;;;;;;14.63;2.80;;;22.30;95.80;;;;;;5060999;28;20214;-73
2021/06/09 04:08:48;;;;;;;11.47;2.33;;;22.50;95.60;;;;;;5055906;28;20190;-74
2021/06/09 04:11:19;;;;;;;8.13;2.20;;;22.50;95.30;;;;;;5059591;28;20306;-72
2021/06/09 04:13:49;;;;;;;8.67;2.43;;;22.50;95.20;;;;;;5058963;28;20273;-70
2021/06/09 04:16:18;;;;;;;6.97;2.30;;;22.50;95.70;;;;;;5056776;28;20196;-71
2021/06/09 04:18:48;;;;;;;12.07;2.63;;;22.40;95.90;;;;;;5062510;28;20210;-72
2021/06/09 04:21:16;;;;;;;15.73;2.53;;;22.30;96.90;;;;;;5055031;28;20897;-73
2021/06/09 04:23:42;;;;;;;11.47;3.27;;;22.30;97.20;;;;;;5058537;28;20214;-73
2021/06/09 04:26:14;;;;;;;13.20;2.40;;;22.50;96.50;;;;;;5055611;28;20257;-71
2021/06/09 04:28:43;;;;;;;10.80;2.40;;;22.40;96.80;;;;;;5056583;28;20865;-71
2021/06/09 04:31:14;;;;;;;11.73;2.13;;;22.60;94.60;;;;;;5058596;28;20214;-72
2021/06/09 04:33:44;;;;;;;10.33;2.60;;;22.60;94.80;;;;;;5057360;28;21681;-70
2021/06/09 04:36:16;;;;;;;6.53;1.97;;;22.60;94.50;;;;;;5043993;28;20186;-70
2021/06/09 04:38:43;;;;;;;14.00;2.70;;;22.60;95.10;;;;;;5062541;28;20586;-70
2021/06/09 04:41:09;;;;;;;11.73;2.00;;;22.60;94.60;;;;;;5061870;28;20260;-72
2021/06/09 04:43:36;;;;;;;15.17;2.13;;;22.80;92.60;;;;;;5059428;28;20206;-71
2021/06/09 04:46:03;;;;;;;13.17;2.43;;;22.90;88.70;;;;;;5057031;28;20186;-70
2021/06/09 04:48:29;;;;;;;7.43;1.90;;;23.00;90.30;;;;;;5060283;28;20187;-70
2021/06/09 04:50:55;;;;;;;9.33;2.23;;;23.00;90.00;;;;;;5060694;28;20682;-70
2021/06/09 04:53:22;;;;;;;18.10;2.40;;;22.90;90.50;;;;;;5063453;28;20191;-70
2021/06/09 04:55:55;;;;;;;8.63;1.80;;;23.20;86.30;;;;;;5063715;28;20222;-70
2021/06/09 04:58:26;;;;;;;9.83;1.93;;;23.20;84.60;;;;;;5063042;28;20210;-69
2021/06/09 05:00:53;;;;;;;9.07;2.17;;;23.20;85.80;;;;;;5056639;28;20784;-71
2021/06/09 05:03:20;;;;;;;8.00;2.07;;;23.20;85.90;;;;;;5058686;28;20206;-70
2021/06/09 05:05:50;;;;;;;11.90;2.30;;;23.40;85.20;;;;;;5047917;28;20225;-69
2021/06/09 05:08:16;;;;;;;8.47;2.77;;;23.60;86.10;;;;;;5056674;28;20191;-69
2021/06/09 05:10:43;;;;;;;10.47;2.13;;;24.10;84.00;;;;;;5058401;28;20352;-68
2021/06/09 05:13:30;;;;;;;17.20;2.87;;;24.30;84.00;;;;;;5062534;28;20313;-70
2021/06/09 05:16:05;;;;;;;9.10;1.87;;;24.30;83.50;;;;;;5086653;28;20188;-70
2021/06/09 05:18:44;;;;;;;11.27;2.60;;;24.20;85.60;;;;;;5058905;28;20310;-69
2021/06/09 05:21:12;;;;;;;12.73;2.47;;;24.20;86.00;;;;;;5051240;28;20259;-72
2021/06/09 05:23:42;;;;;;;9.90;2.27;;;24.10;83.50;;;;;;5054234;28;20221;-69
2021/06/09 05:26:14;;;;;;;7.80;2.27;;;24.20;85.70;;;;;;5056262;28;20207;-69
2021/06/09 05:29:06;;;;;;;14.57;2.60;;;24.20;85.10;;;;;;5059001;28;20205;-71
2021/06/09 05:31:35;;;;;;;10.07;2.30;;;24.20;85.30;;;;;;5054684;28;20254;-70
2021/06/09 05:34:03;;;;;;;7.77;2.33;;;24.40;82.00;;;;;;5054835;28;20267;-68
2021/06/09 05:36:32;;;;;;;13.40;2.27;;;24.50;80.80;;;;;;5052611;28;20301;-70
2021/06/09 05:39:00;;;;;;;10.17;1.90;;;24.60;81.20;;;;;;5059757;28;20660;-68
2021/06/09 05:41:27;;;;;;;14.70;2.67;;;24.60;82.60;;;;;;5055587;28;20200;-69
2021/06/09 05:43:53;;;;;;;11.02;2.33;;;24.70;81.70;;;;;;5063837;28;20194;-71
2021/06/09 05:46:21;;;;;;;9.82;2.28;;;24.70;79.10;;;;;;5054547;28;20206;-70
2021/06/09 05:48:48;;;;;;;10.75;2.22;;;24.60;80.00;;;;;;5061646;28;20203;-69
2021/06/09 05:51:17;;;;;;;10.10;2.33;;;24.70;79.60;;;;;;5054086;28;20221;-68
2021/06/09 05:53:45;;;;;;;14.88;2.55;;;24.90;80.70;;;;;;5058564;28;20195;-71
2021/06/09 05:56:12;;;;;;;10.57;2.13;;;24.90;79.80;;;;;;5052386;28;20675;-68
2021/06/09 05:58:40;;;;;;;8.32;2.13;;;25.20;76.80;;;;;;5061707;28;20218;-68
2021/06/09 06:01:10;;;;;;;10.63;2.10;;;25.40;77.10;;;;;;5056348;28;20714;-68
2021/06/09 06:03:42;;;;;;;10.23;2.45;;;25.20;79.40;;;;;;5054795;28;20505;-69
2021/06/09 06:06:15;;;;;;;8.50;2.30;;;25.20;79.50;;;;;;5058965;28;20628;-69
2021/06/09 06:08:44;;;;;;;12.23;2.17;;;25.30;79.30;;;;;;5059909;28;20214;-71
2021/06/09 06:11:13;;;;;;;9.15;2.15;;;25.30;78.60;;;;;;5055421;28;20291;-74
2021/06/09 06:13:44;;;;;;;12.65;2.00;;;25.50;78.90;;;;;;5060522;28;20219;-72
2021/06/09 06:16:19;;;;;;;6.40;2.13;;;25.60;79.00;;;;;;5057947;28;20224;-72
2021/06/09 06:18:48;;;;;;;12.20;2.22;;;26.00;77.40;;;;;;5083303;28;20256;-71
2021/06/09 06:21:19;;;;;;;12.13;2.45;;;25.80;77.60;;;;;;5051747;28;20190;-73
2021/06/09 06:23:46;;;;;;;11.43;2.28;;;25.70;79.20;;;;;;5085866;28;20182;-69
2021/06/09 06:26:17;;;;;;;14.88;2.17;;;26.10;75.40;;;;;;5054547;28;20357;-69
2021/06/09 06:28:44;;;;;;;14.38;2.70;;;26.00;75.60;;;;;;5057326;28;20171;-71
2021/06/09 06:31:19;;;;;;;8.68;2.20;;;26.10;78.40;;;;;;5055619;28;20178;-68
2021/06/09 06:33:47;;;;;;;11.25;2.35;;;26.30;76.90;;;;;;5062384;28;20185;-71
2021/06/09 06:36:19;;;;;;;11.85;2.58;;;26.40;78.20;;;;;;5061171;28;20293;-71
2021/06/09 06:38:47;;;;;;;13.93;2.92;;;26.60;77.80;;;;;;5058565;28;20310;-73
2021/06/09 06:41:14;;;;;;;14.02;2.70;;;26.70;77.30;;;;;;5058595;28;20755;-73
2021/06/09 06:43:41;;;;;;;9.38;2.70;;;26.60;79.30;;;;;;5054744;28;20638;-71
2021/06/09 06:46:18;;;;;;;9.25;2.42;;;26.70;78.60;;;;;;5041263;28;20187;-70
2021/06/09 06:48:48;;;;;;;18.08;3.17;;;26.70;76.50;;;;;;5051271;28;20666;-70
2021/06/09 06:51:17;;;;;;;9.35;2.45;;;26.80;76.60;;;;;;5052768;28;21228;-71
2021/06/09 06:53:50;;;;;;;10.25;2.28;;;26.90;77.50;;;;;;5052039;28;20543;-70
2021/06/09 06:56:19;;;;;;;6.53;2.35;;;26.80;77.30;;;;;;5055101;28;20687;-71
2021/06/09 06:58:50;;;;;;;7.43;2.15;;;26.80;79.00;;;;;;5059371;28;20219;-72
2021/06/09 07:01:21;;;;;;;15.80;2.58;;;27.10;79.00;;;;;;5056793;28;20237;-71
2021/06/09 07:03:50;;;;;;;13.57;2.28;;;27.20;79.90;;;;;;5060842;28;20187;-72
2021/06/09 07:06:18;;;;;;;16.25;2.72;;;27.10;80.60;;;;;;5084232;28;20776;-73
2021/06/09 07:08:46;;;;;;;14.13;2.95;;;27.00;81.10;;;;;;5059279;28;20214;-71
2021/06/09 07:11:14;;;;;;;12.48;2.55;;;27.20;78.50;;;;;;5056603;28;20198;-71
2021/06/09 07:13:41;;;;;;;11.18;3.03;;;27.20;77.60;;;;;;5058434;28;20718;-70
2021/06/09 07:16:10;;;;;;;10.75;2.10;;;27.20;81.10;;;;;;5057506;28;20583;-71
2021/06/09 07:18:43;;;;;;;10.52;2.83;;;27.30;80.30;;;;;;5082669;28;20306;-70
2021/06/09 07:21:30;;;;;;;13.95;2.65;;;27.30;76.90;;;;;;5035932;28;20194;-72
2021/06/09 07:23:58;;;;;;;15.43;2.78;;;27.30;76.90;;;;;;5057000;28;20186;-71
2021/06/09 07:26:29;;;;;;;11.02;2.15;;;27.50;78.80;;;;;;5050948;28;20199;-72
2021/06/09 07:28:57;;;;;;;10.70;2.35;;;27.30;77.50;;;;;;5058746;28;20650;-72
2021/06/09 07:31:36;;;;;;;20.10;2.60;;;27.50;77.10;;;;;;5050315;28;20190;-70
2021/06/09 07:34:09;;;;;;;11.68;2.90;;;27.50;77.50;;;;;;5059350;28;20594;-70
2021/06/09 07:37:13;;;;;;;12.82;2.50;;;27.70;77.40;;;;;;5061983;28;20183;-70
2021/06/09 07:39:51;;;;;;;9.02;2.40;;;27.60;77.70;;;;;;5055334;28;20188;-72
2021/06/09 07:42:20;;;;;;;11.13;2.65;;;27.70;78.00;;;;;;5058754;28;20234;-73
2021/06/09 07:45:13;;;;;;;13.98;2.70;;;27.70;77.60;;;;;;5058588;28;20201;-71
2021/06/09 07:47:46;;;;;;;13.95;2.45;;;27.60;78.20;;;;;;5060998;28;20203;-71
2021/06/09 07:50:18;;;;;;;12.45;2.80;;;27.60;78.00;;;;;;5058749;28;20198;-71
2021/06/09 07:52:46;;;;;;;6.82;2.00;;;27.70;76.90;;;;;;5055958;28;20559;-72
2021/06/09 07:55:14;;;;;;;11.77;2.50;;;27.70;77.30;;;;;;5057889;28;20191;-72
2021/06/09 07:57:46;;;;;;;9.15;3.00;;;27.80;77.10;;;;;;5057948;28;20221;-72
2021/06/09 08:01:18;;;;;;;15.98;2.30;;;27.80;77.70;;;;;;5062821;28;20183;-73
2021/06/09 08:03:45;;;;;;;14.70;2.15;;;27.80;74.40;;;;;;5044743;28;20253;-71
2021/06/09 08:06:15;;;;;;;11.88;2.35;;;27.80;77.10;;;;;;5061080;28;21104;-71
2021/06/09 08:08:45;;;;;;;11.93;2.53;;;27.90;78.20;;;;;;5058978;28;20191;-72
2021/06/09 08:11:14;;;;;;;15.73;2.88;;;28.10;74.20;;;;;;5069472;28;20307;-73
2021/06/09 08:13:43;;;;;;;11.13;2.67;;;28.10;75.10;;;;;;5057773;28;20274;-71
2021/06/09 08:16:19;;;;;;;15.23;2.65;;;28.00;74.10;;;;;;5056698;28;20202;-69
2021/06/09 08:18:47;;;;;;;11.70;2.33;;;28.00;74.60;;;;;;5065705;28;20217;-70
2021/06/09 08:21:23;;;;;;;12.05;2.67;;;28.20;75.40;;;;;;5058894;28;20186;-71
2021/06/09 08:23:53;;;;;;;8.10;2.10;;;28.40;74.90;;;;;;5042894;28;20707;-70
2021/06/09 08:26:24;;;;;;;11.48;3.00;;;28.40;73.60;;;;;;5056468;28;20226;-72
2021/06/09 08:28:56;;;;;;;10.15;2.67;;;28.30;73.70;;;;;;5043400;28;20188;-71
2021/06/09 08:31:31;;;;;;;10.88;2.13;;;28.50;70.40;;;;;;5042525;28;20644;-70
2021/06/09 08:34:01;;;;;;;10.63;2.50;;;28.50;71.60;;;;;;5060297;28;20192;-71
2021/06/09 08:36:30;;;;;;;12.88;2.83;;;28.50;73.00;;;;;;5043461;28;20206;-71
2021/06/09 08:38:58;;;;;;;12.05;2.60;;;28.60;70.80;;;;;;5057505;28;20302;-70
2021/06/09 08:41:35;;;;;;;9.95;2.65;;;28.50;71.40;;;;;;5060695;28;20658;-72
2021/06/09 08:44:04;;;;;;;7.97;2.20;;;28.50;70.40;;;;;;5046637;28;20252;-70
2021/06/09 08:46:33;;;;;;;10.35;2.42;;;28.60;70.10;;;;;;5061872;28;20187;-70
2021/06/09 08:49:01;;;;;;;17.58;2.53;;;28.70;69.80;;;;;;5060162;28;20320;-73
2021/06/09 08:51:39;;;;;;;10.68;2.40;;;28.90;69.80;;;;;;5054575;28;20191;-71
2021/06/09 08:54:13;;;;;;;9.60;2.22;;;28.90;68.70;;;;;;5062683;28;20214;-71
2021/06/09 08:56:46;;;;;;;8.50;2.17;;;28.90;69.30;;;;;;5047138;28;20252;-72
2021/06/09 08:59:14;;;;;;;16.70;2.40;;;28.70;69.60;;;;;;5047326;28;21024;-72
2021/06/09 09:01:41;;;;;;;11.00;2.60;;;29.00;70.20;;;;;;5060956;28;20194;-70
2021/06/09 09:04:08;;;;;;;10.15;2.35;;;29.10;68.50;;;;;;5063088;28;20198;-72
2021/06/09 09:06:35;;;;;;;8.93;1.92;;;29.00;70.40;;;;;;5063918;28;20214;-70
2021/06/09 09:09:04;;;;;;;11.80;2.67;;;29.20;67.70;;;;;;5062554;28;20325;-71
2021/06/09 09:11:33;;;;;;;11.15;2.97;;;29.30;68.40;;;;;;5057518;28;20745;-68
2021/06/09 09:14:02;;;;;;;16.20;2.58;;;29.50;67.70;;;;;;5040320;28;20182;-71
2021/06/09 09:16:30;;;;;;;11.25;2.10;;;29.30;68.40;;;;;;5061755;28;20199;-68
2021/06/09 09:19:12;;;;;;;12.80;2.67;;;29.60;67.20;;;;;;5055955;28;20211;-69
2021/06/09 09:21:49;;;;;;;12.35;2.25;;;29.50;66.50;;;;;;5051666;28;20240;-68
2021/06/09 09:24:17;;;;;;;6.65;2.00;;;29.60;63.90;;;;;;5043293;28;20312;-70
2021/06/09 09:26:50;;;;;;;15.48;2.40;;;29.60;65.20;;;;;;5058570;28;20655;-68
2021/06/09 09:29:21;;;;;;;11.88;2.50;;;29.70;64.80;;;;;;5039060;28;20738;-70
2021/06/09 09:32:07;;;;;;;15.18;2.45;;;29.70;64.90;;;;;;5058773;28;20297;-68
2021/06/09 09:34:44;;;;;;;10.55;2.38;;;29.80;64.60;;;;;;5059909;28;20269;-68
2021/06/09 09:37:23;;;;;;;10.23;2.65;;;30.20;62.50;;;;;;5052149;28;20260;-68
2021/06/09 09:40:16;;;;;;;15.63;2.40;;;30.30;62.30;;;;;;5043466;28;20194;-67
2021/06/09 09:42:54;;;;;;;6.60;2.17;;;30.30;61.90;;;;;;5057409;28;20870;-68
2021/06/09 09:45:28;;;;;;;12.23;2.42;;;30.30;63.50;;;;;;5053466;28;20190;-69
2021/06/09 09:48:09;;;;;;;12.27;2.28;;;30.30;62.00;;;;;;5056059;28;20190;-69
2021/06/09 09:50:49;;;;;;;14.35;2.80;;;30.30;61.80;;;;;;5057795;28;20187;-69
2021/06/09 09:53:30;;;;;;;13.55;2.60;;;30.30;60.10;;;;;;5055514;28;20191;-69
2021/06/09 09:56:04;;;;;;;18.38;2.50;;;30.30;61.10;;;;;;5060570;28;20268;-68
2021/06/09 09:58:39;;;;;;;9.85;2.63;;;29.90;60.60;;;;;;5056914;28;20246;-68
2021/06/09 10:01:23;;;;;;;12.43;2.50;;;30.30;61.40;;;;;;5056387;28;20175;-69
2021/06/09 10:03:56;;;;;;;7.38;2.30;;;30.40;60.60;;;;;;5057634;28;20210;-69
2021/06/09 10:06:45;;;;;;;9.55;2.42;;;30.70;60.50;;;;;;5055009;28;20306;-70
2021/06/09 10:09:14;;;;;;;25.40;2.40;;;30.50;59.50;;;;;;5060009;28;20222;-68
2021/06/09 10:11:45;;;;;;;12.95;2.35;;;30.60;60.60;;;;;;5057051;28;20198;-71
2021/06/09 10:14:28;;;;;;;13.27;2.47;;;30.60;58.60;;;;;;5055597;28;20240;-68
2021/06/09 10:17:03;;;;;;;15.20;2.33;;;30.60;58.70;;;;;;5054469;28;20206;-68
2021/06/09 10:19:40;;;;;;;7.50;2.13;;;30.50;58.30;;;;;;5055808;28;20787;-68
2021/06/09 10:22:15;;;;;;;11.30;2.40;;;30.40;59.00;;;;;;5054027;28;20654;-68
2021/06/09 10:24:58;;;;;;;9.65;2.50;;;30.70;60.20;;;;;;5043461;28;20277;-70
2021/06/09 10:27:53;;;;;;;5.85;2.20;;;30.70;59.70;;;;;;5060328;28;20199;-70
2021/06/09 10:30:28;;;;;;;7.35;2.58;;;30.50;58.70;;;;;;5041683;28;20228;-70
2021/06/09 10:32:58;;;;;;;11.52;2.20;;;30.50;59.90;;;;;;5058362;28;20218;-68
2021/06/09 10:35:46;;;;;;;7.88;2.05;;;30.70;59.80;;;;;;5058824;28;20182;-69
2021/06/09 10:38:13;;;;;;;7.38;2.38;;;30.70;59.70;;;;;;5059758;28;20301;-69
2021/06/09 10:40:40;;;;;;;13.80;2.30;;;30.40;58.30;;;;;;5043284;28;20205;-69
2021/06/09 10:43:07;;;;;;;6.05;1.98;;;30.50;58.50;;;;;;5061641;28;20636;-69
2021/06/09 10:45:36;;;;;;;8.38;2.05;;;30.70;58.60;;;;;;5056550;28;20183;-68
2021/06/09 10:48:04;;;;;;;7.55;2.05;;;30.40;59.30;;;;;;5055707;28;20197;-69
2021/06/09 10:50:32;;;;;;;8.75;2.50;;;30.40;59.40;;;;;;5059907;28;20671;-67
2021/06/09 10:52:59;;;;;;;10.70;2.17;;;30.30;58.90;;;;;;5055868;28;20196;-68
2021/06/09 10:55:27;;;;;;;13.32;2.50;;;30.50;59.70;;;;;;5058165;28;20190;-68
2021/06/09 10:57:53;;;;;;;13.50;2.45;;;30.50;59.80;;;;;;5053279;28;20215;-69
2021/06/09 11:00:21;;;;;;;17.35;2.90;;;30.40;58.70;;;;;;5060821;28;20209;-69
2021/06/09 11:02:54;;;;;;;8.55;2.10;;;30.40;59.70;;;;;;5037186;28;20265;-68
2021/06/09 11:05:21;;;;;;;11.60;2.17;;;30.50;60.40;;;;;;5056710;28;20267;-71
2021/06/09 11:07:52;;;;;;;15.18;2.45;;;30.40;58.10;;;;;;5062875;28;20191;-67
2021/06/09 11:10:31;;;;;;;11.40;2.42;;;30.60;58.00;;;;;;5059802;28;20199;-69
2021/06/09 11:12:58;;;;;;;7.65;2.58;;;30.70;58.80;;;;;;5060174;28;20908;-68
2021/06/09 11:15:31;;;;;;;9.73;2.60;;;30.60;59.20;;;;;;5061935;28;20217;-70
2021/06/09 11:18:00;;;;;;;7.75;2.05;;;30.80;58.70;;;;;;5055663;28;20401;-68
2021/06/09 11:20:38;;;;;;;11.00;2.42;;;30.60;59.20;;;;;;5054426;28;20286;-69
2021/06/09 11:23:29;;;;;;;16.83;2.70;;;30.60;57.80;;;;;;5057634;28;20202;-66
2021/06/09 11:25:56;;;;;;;22.15;3.20;;;30.70;57.90;;;;;;5053515;28;20191;-67
2021/06/09 11:28:40;;;;;;;13.45;3.05;;;30.90;57.10;;;;;;5060459;28;20195;-67
2021/06/09 11:31:22;;;;;;;10.75;2.45;;;30.50;57.00;;;;;;5052302;28;20608;-67
2021/06/09 11:33:54;;;;;;;7.88;2.35;;;30.20;56.50;;;;;;5054663;28;20186;-71
2021/06/09 11:36:20;;;;;;;16.08;2.25;;;30.00;55.80;;;;;;5056749;28;20397;-68
2021/06/09 11:39:15;;;;;;;8.07;2.70;;;29.90;56.90;;;;;;5057313;28;20210;-67
2021/06/09 11:41:45;;;;;;;12.65;2.95;;;29.90;57.00;;;;;;5049589;28;20213;-70
2021/06/09 11:44:29;;;;;;;11.05;2.10;;;29.90;56.50;;;;;;5068101;28;20186;-68
2021/06/09 11:47:27;;;;;;;12.35;2.50;;;29.80;55.90;;;;;;5059331;28;20273;-70
2021/06/09 11:50:30;;;;;;;12.90;2.05;;;30.00;56.30;;;;;;5038327;28;20194;-70
2021/06/09 11:53:13;;;;;;;11.70;2.20;;;29.90;55.90;;;;;;5051019;28;20574;-68
2021/06/09 11:55:43;;;;;;;8.63;2.00;;;30.00;56.40;;;;;;5059798;28;20224;-67
2021/06/09 11:58:14;;;;;;;12.02;2.40;;;29.90;56.00;;;;;;5036237;28;20203;-68
2021/06/09 12:01:08;;;;;;;10.00;2.42;;;30.10;54.70;;;;;;5058731;28;20270;-69
2021/06/09 12:03:40;;;;;;;8.65;2.70;;;30.10;54.30;;;;;;5053865;28;20198;-69
2021/06/09 12:06:17;;;;;;;15.32;2.42;;;30.00;54.70;;;;;;5055718;28;20293;-69
2021/06/09 12:08:46;;;;;;;9.85;2.08;;;30.10;54.40;;;;;;5054301;28;20197;-68
2021/06/09 12:11:13;;;;;;;10.80;2.10;;;30.00;54.30;;;;;;5054705;28;20194;-67
2021/06/09 12:13:40;;;;;;;14.73;2.30;;;30.00;54.40;;;;;;5059739;28;20539;-68
2021/06/09 12:16:20;;;;;;;6.35;2.00;;;30.10;54.30;;;;;;5051934;28;20188;-69
2021/06/09 12:18:49;;;;;;;7.82;2.17;;;30.30;54.80;;;;;;5061841;28;20891;-69
2021/06/09 12:21:19;;;;;;;7.22;2.10;;;30.10;53.50;;;;;;5056420;28;20194;-68
2021/06/09 12:23:59;;;;;;;8.23;2.00;;;29.80;54.00;;;;;;5057776;28;20320;-69
2021/06/09 12:26:27;;;;;;;8.13;2.30;;;29.80;53.30;;;;;;5078615;28;20191;-68
2021/06/09 12:29:06;;;;;;;14.68;2.10;;;29.50;52.70;;;;;;5056462;28;20183;-68
2021/06/09 12:31:38;;;;;;;5.28;2.13;;;29.70;52.50;;;;;;5039253;28;20194;-68
2021/06/09 12:34:06;;;;;;;9.45;2.00;;;29.40;53.60;;;;;;5057152;28;20329;-69
2021/06/09 12:36:32;;;;;;;4.30;1.70;;;29.40;53.90;;;;;;5057373;28;20198;-69
2021/06/09 12:39:00;;;;;;;11.30;2.28;;;29.40;53.80;;;;;;5056736;28;20226;-68
2021/06/09 12:41:36;;;;;;;9.40;2.03;;;29.30;52.90;;;;;;5055347;28;20218;-67
2021/06/09 12:44:14;;;;;;;6.57;1.63;;;29.50;53.80;;;;;;5053748;28;20212;-68
2021/06/09 12:46:40;;;;;;;10.43;1.77;;;29.50;52.80;;;;;;5043775;28;20543;-69
2021/06/09 12:49:26;;;;;;;10.88;2.30;;;29.40;52.80;;;;;;5082014;28;20201;-67
2021/06/09 12:52:08;;;;;;;6.38;1.90;;;29.60;52.40;;;;;;5054450;28;20336;-69
2021/06/09 12:54:36;;;;;;;11.52;2.13;;;29.70;52.30;;;;;;5051517;28;20809;-68
2021/06/09 12:57:05;;;;;;;8.70;2.00;;;29.80;52.20;;;;;;5062643;28;20896;-67
2021/06/09 12:59:37;;;;;;;6.82;2.13;;;29.70;51.70;;;;;;5057974;28;20222;-67
2021/06/09 13:02:05;;;;;;;9.05;1.80;;;29.80;53.20;;;;;;5055086;28;20742;-66
2021/06/09 13:04:43;;;;;;;10.88;1.65;;;29.60;51.70;;;;;;5058310;28;20215;-67
2021/06/09 13:07:09;;;;;;;4.75;1.75;;;29.60;53.40;;;;;;5055581;28;20214;-67
2021/06/09 13:09:37;;;;;;;5.70;1.90;;;29.40;53.20;;;;;;5053638;28;20651;-67
2021/06/09 13:12:05;;;;;;;11.68;1.95;;;29.70;51.10;;;;;;5052669;28;20219;-70